sensor_id;sensor_type;location;lat;lon;timestamp;pressure;altitude;pressure_sealevel;temperature;humidity
20077;BME280;12348;42.710;23.378;2023-04-07T00:01:15;94883.56;;;-0.51;100.00
20077;BME280;12348;42.710;23.378;2023-04-07T00:03:42;94888.38;;;-0.59;100.00
20077;BME280;12348;42.710;23.378;2023-04-07T00:06:10;94885.72;;;-0.59;100.00
20077;BME280;12348;42.710;23.378;2023-04-07T00:08:37;94890.25;;;-0.48;100.00
20077;BME280;12348;42.710;23.378;2023-04-07T00:11:04;94885.94;;;-0.61;100.00
20077;BME280;12348;42.710;23.378;2023-04-07T00:13:31;94884.69;;;-0.58;100.00
20077;BME280;12348;42.710;23.378;2023-04-07T00:15:58;94894.38;;;-0.52;100.00
20077;BME280;12348;42.710;23.378;2023-04-07T00:18:25;94892.53;;;-0.52;100.00
20077;BME280;12348;42.710;23.378;2023-04-07T00:20:51;94887.44;;;-0.53;100.00
20077;BME280;12348;42.710;23.378;2023-04-07T00:23:19;94886.19;;;-0.51;100.00
20077;BME280;12348;42.710;23.378;2023-04-07T00:25:49;94886.56;;;-0.47;100.00
20077;BME280;12348;42.710;23.378;2023-04-07T00:28:16;94884.94;;;-0.48;100.00
20077;BME280;12348;42.710;23.378;2023-04-07T00:30:43;94882.31;;;-0.48;100.00
20077;BME280;12348;42.710;23.378;2023-04-07T00:33:09;94874.75;;;-0.33;100.00
20077;BME280;12348;42.710;23.378;2023-04-07T00:35:36;94872.72;;;-0.07;100.00
20077;BME280;12348;42.710;23.378;2023-04-07T00:38:03;94880.03;;;-0.21;100.00
20077;BME280;12348;42.710;23.378;2023-04-07T00:40:31;94884.63;;;-0.28;100.00
20077;BME280;12348;42.710;23.378;2023-04-07T00:42:58;94875.09;;;-0.29;100.00
20077;BME280;12348;42.710;23.378;2023-04-07T00:45:24;94879.00;;;-0.32;100.00
20077;BME280;12348;42.710;23.378;2023-04-07T00:47:51;94888.09;;;-0.28;100.00
20077;BME280;12348;42.710;23.378;2023-04-07T00:50:18;94875.19;;;-0.36;100.00
20077;BME280;12348;42.710;23.378;2023-04-07T00:52:45;94882.69;;;-0.33;100.00
20077;BME280;12348;42.710;23.378;2023-04-07T00:55:12;94877.38;;;-0.33;100.00
20077;BME280;12348;42.710;23.378;2023-04-07T00:57:40;94877.56;;;-0.46;100.00
20077;BME280;12348;42.710;23.378;2023-04-07T01:00:08;94876.66;;;-0.52;100.00
20077;BME280;12348;42.710;23.378;2023-04-07T01:02:40;94873.22;;;-0.52;100.00
20077;BME280;12348;42.710;23.378;2023-04-07T01:05:13;94877.25;;;-0.38;100.00
20077;BME280;12348;42.710;23.378;2023-04-07T01:07:50;94877.56;;;-0.46;100.00
20077;BME280;12348;42.710;23.378;2023-04-07T01:10:26;94878.81;;;-0.60;100.00
20077;BME280;12348;42.710;23.378;2023-04-07T01:12:58;94869.66;;;-0.46;100.00
20077;BME280;12348;42.710;23.378;2023-04-07T01:15:29;94870.69;;;-0.47;100.00
20077;BME280;12348;42.710;23.378;2023-04-07T01:18:03;94880.22;;;-0.46;100.00
20077;BME280;12348;42.710;23.378;2023-04-07T01:20:33;94876.31;;;-0.55;100.00
20077;BME280;12348;42.710;23.378;2023-04-07T01:23:05;94874.09;;;-0.58;100.00
20077;BME280;12348;42.710;23.378;2023-04-07T01:28:54;94869.72;;;-0.64;100.00
20077;BME280;12348;42.710;23.378;2023-04-07T01:31:25;94868.88;;;-0.77;100.00
20077;BME280;12348;42.710;23.378;2023-04-07T01:33:53;94874.63;;;-0.80;100.00
20077;BME280;12348;42.710;23.378;2023-04-07T01:36:21;94873.22;;;-0.82;100.00
20077;BME280;12348;42.710;23.378;2023-04-07T01:38:49;94868.00;;;-0.70;100.00
20077;BME280;12348;42.710;23.378;2023-04-07T01:41:18;94867.94;;;-0.82;100.00
20077;BME280;12348;42.710;23.378;2023-04-07T01:43:46;94867.44;;;-0.91;100.00
20077;BME280;12348;42.710;23.378;2023-04-07T01:46:14;94866.88;;;-0.93;100.00
20077;BME280;12348;42.710;23.378;2023-04-07T01:48:43;94864.03;;;-0.80;100.00
20077;BME280;12348;42.710;23.378;2023-04-07T01:51:12;94861.25;;;-0.96;100.00
20077;BME280;12348;42.710;23.378;2023-04-07T01:53:42;94859.91;;;-0.76;100.00
20077;BME280;12348;42.710;23.378;2023-04-07T01:56:09;94865.97;;;-0.87;100.00
20077;BME280;12348;42.710;23.378;2023-04-07T01:58:36;94857.84;;;-0.85;100.00
20077;BME280;12348;42.710;23.378;2023-04-07T02:01:03;94850.88;;;-0.56;100.00
20077;BME280;12348;42.710;23.378;2023-04-07T02:03:33;94853.84;;;-0.64;100.00
20077;BME280;12348;42.710;23.378;2023-04-07T02:06:08;94846.41;;;-0.56;100.00
20077;BME280;12348;42.710;23.378;2023-04-07T02:08:41;94850.22;;;-0.52;100.00
20077;BME280;12348;42.710;23.378;2023-04-07T02:11:12;94856.31;;;-0.39;100.00
20077;BME280;12348;42.710;23.378;2023-04-07T02:13:41;94847.81;;;-0.41;100.00
20077;BME280;12348;42.710;23.378;2023-04-07T02:16:10;94849.78;;;-0.37;100.00
20077;BME280;12348;42.710;23.378;2023-04-07T02:18:38;94846.00;;;-0.41;100.00
20077;BME280;12348;42.710;23.378;2023-04-07T02:21:07;94850.69;;;-0.43;100.00
20077;BME280;12348;42.710;23.378;2023-04-07T02:23:35;94851.38;;;-0.36;100.00
20077;BME280;12348;42.710;23.378;2023-04-07T02:26:02;94851.63;;;-0.26;100.00
20077;BME280;12348;42.710;23.378;2023-04-07T02:28:29;94853.84;;;-0.11;100.00
20077;BME280;12348;42.710;23.378;2023-04-07T02:30:56;94847.16;;;-0.02;100.00
20077;BME280;12348;42.710;23.378;2023-04-07T02:33:23;94853.84;;;0.01;100.00
20077;BME280;12348;42.710;23.378;2023-04-07T02:35:49;94844.97;;;0.19;100.00
20077;BME280;12348;42.710;23.378;2023-04-07T02:38:18;94854.63;;;0.25;100.00
20077;BME280;12348;42.710;23.378;2023-04-07T02:40:44;94851.38;;;0.35;100.00
20077;BME280;12348;42.710;23.378;2023-04-07T02:43:11;94854.91;;;0.52;100.00
20077;BME280;12348;42.710;23.378;2023-04-07T02:45:38;94848.44;;;0.71;100.00
20077;BME280;12348;42.710;23.378;2023-04-07T02:48:05;94846.81;;;0.70;100.00
20077;BME280;12348;42.710;23.378;2023-04-07T02:50:32;94858.66;;;0.80;100.00
20077;BME280;12348;42.710;23.378;2023-04-07T02:52:58;94858.28;;;0.88;100.00
20077;BME280;12348;42.710;23.378;2023-04-07T02:55:27;94860.00;;;0.94;100.00
20077;BME280;12348;42.710;23.378;2023-04-07T02:57:56;94858.16;;;0.94;100.00
20077;BME280;12348;42.710;23.378;2023-04-07T03:00:24;94857.00;;;1.19;100.00
20077;BME280;12348;42.710;23.378;2023-04-07T03:02:50;94856.13;;;1.13;100.00
20077;BME280;12348;42.710;23.378;2023-04-07T03:05:18;94855.16;;;1.19;100.00
20077;BME280;12348;42.710;23.378;2023-04-07T03:07:44;94840.81;;;1.04;100.00
20077;BME280;12348;42.710;23.378;2023-04-07T03:10:11;94857.13;;;0.95;100.00
20077;BME280;12348;42.710;23.378;2023-04-07T03:12:39;94855.50;;;0.94;100.00
20077;BME280;12348;42.710;23.378;2023-04-07T03:15:07;94860.59;;;0.84;100.00
20077;BME280;12348;42.710;23.378;2023-04-07T03:17:34;94854.16;;;0.80;100.00
20077;BME280;12348;42.710;23.378;2023-04-07T03:20:01;94855.13;;;0.62;100.00
20077;BME280;12348;42.710;23.378;2023-04-07T03:22:28;94857.56;;;0.52;100.00
20077;BME280;12348;42.710;23.378;2023-04-07T03:24:54;94854.59;;;0.37;100.00
20077;BME280;12348;42.710;23.378;2023-04-07T03:27:21;94851.63;;;0.21;100.00
20077;BME280;12348;42.710;23.378;2023-04-07T03:29:49;94850.94;;;0.14;100.00
20077;BME280;12348;42.710;23.378;2023-04-07T03:32:16;94847.75;;;0.01;100.00
20077;BME280;12348;42.710;23.378;2023-04-07T03:34:43;94852.91;;;-0.16;100.00
20077;BME280;12348;42.710;23.378;2023-04-07T03:37:10;94857.72;;;-0.25;100.00
20077;BME280;12348;42.710;23.378;2023-04-07T03:39:36;94856.34;;;-0.28;100.00
20077;BME280;12348;42.710;23.378;2023-04-07T03:42:05;94850.50;;;-0.30;100.00
20077;BME280;12348;42.710;23.378;2023-04-07T03:44:32;94862.88;;;-0.30;100.00
20077;BME280;12348;42.710;23.378;2023-04-07T03:47:00;94860.47;;;-0.43;100.00
20077;BME280;12348;42.710;23.378;2023-04-07T03:49:27;94855.53;;;-0.40;100.00
20077;BME280;12348;42.710;23.378;2023-04-07T03:51:54;94858.97;;;-0.39;100.00
20077;BME280;12348;42.710;23.378;2023-04-07T03:54:22;94866.47;;;-0.36;100.00
20077;BME280;12348;42.710;23.378;2023-04-07T03:56:48;94871.75;;;-0.25;100.00
20077;BME280;12348;42.710;23.378;2023-04-07T03:59:15;94863.13;;;-0.32;100.00
20077;BME280;12348;42.710;23.378;2023-04-07T04:01:42;94880.38;;;-0.41;100.00
20077;BME280;12348;42.710;23.378;2023-04-07T04:04:10;94872.19;;;-0.51;100.00
20077;BME280;12348;42.710;23.378;2023-04-07T04:06:37;94881.69;;;-0.62;100.00
20077;BME280;12348;42.710;23.378;2023-04-07T04:09:04;94881.72;;;-0.50;100.00
20077;BME280;12348;42.710;23.378;2023-04-07T04:11:31;94884.72;;;-0.35;100.00
20077;BME280;12348;42.710;23.378;2023-04-07T04:13:57;94873.72;;;-0.08;100.00
20077;BME280;12348;42.710;23.378;2023-04-07T04:16:25;94876.59;;;-0.21;100.00
20077;BME280;12348;42.710;23.378;2023-04-07T04:18:52;94889.84;;;-0.10;100.00
20077;BME280;12348;42.710;23.378;2023-04-07T04:21:21;94881.91;;;-0.10;100.00
20077;BME280;12348;42.710;23.378;2023-04-07T04:23:48;94882.09;;;-0.11;100.00
20077;BME280;12348;42.710;23.378;2023-04-07T04:26:15;94883.03;;;-0.06;100.00
20077;BME280;12348;42.710;23.378;2023-04-07T04:28:41;94891.22;;;-0.07;100.00
20077;BME280;12348;42.710;23.378;2023-04-07T04:31:08;94891.44;;;0.03;100.00
20077;BME280;12348;42.710;23.378;2023-04-07T04:33:35;94896.63;;;0.10;100.00
20077;BME280;12348;42.710;23.378;2023-04-07T04:36:02;94895.72;;;0.16;100.00
20077;BME280;12348;42.710;23.378;2023-04-07T04:38:30;94895.28;;;0.19;100.00
20077;BME280;12348;42.710;23.378;2023-04-07T04:40:57;94904.00;;;0.31;100.00
20077;BME280;12348;42.710;23.378;2023-04-07T04:43:24;94902.50;;;0.47;100.00
20077;BME280;12348;42.710;23.378;2023-04-07T04:45:51;94897.41;;;0.57;100.00
20077;BME280;12348;42.710;23.378;2023-04-07T04:48:17;94904.41;;;0.75;100.00
20077;BME280;12348;42.710;23.378;2023-04-07T04:50:44;94905.06;;;0.94;100.00
20077;BME280;12348;42.710;23.378;2023-04-07T04:53:11;94903.50;;;1.10;100.00
20077;BME280;12348;42.710;23.378;2023-04-07T04:55:39;94911.56;;;1.15;100.00
20077;BME280;12348;42.710;23.378;2023-04-07T04:58:11;94908.31;;;1.25;100.00
20077;BME280;12348;42.710;23.378;2023-04-07T05:00:37;94911.81;;;1.42;100.00
20077;BME280;12348;42.710;23.378;2023-04-07T05:03:04;94911.69;;;1.20;100.00
20077;BME280;12348;42.710;23.378;2023-04-07T05:05:31;94899.97;;;1.33;100.00
20077;BME280;12348;42.710;23.378;2023-04-07T05:07:58;94916.25;;;1.53;100.00
20077;BME280;12348;42.710;23.378;2023-04-07T05:10:25;94915.34;;;1.93;100.00
20077;BME280;12348;42.710;23.378;2023-04-07T05:12:53;94913.16;;;2.24;100.00
20077;BME280;12348;42.710;23.378;2023-04-07T05:15:20;94922.41;;;2.55;100.00
20077;BME280;12348;42.710;23.378;2023-04-07T05:17:47;94919.47;;;2.73;100.00
20077;BME280;12348;42.710;23.378;2023-04-07T05:20:15;94926.75;;;2.83;100.00
20077;BME280;12348;42.710;23.378;2023-04-07T05:22:42;94929.88;;;2.97;100.00
20077;BME280;12348;42.710;23.378;2023-04-07T05:25:09;94928.44;;;2.89;100.00
20077;BME280;12348;42.710;23.378;2023-04-07T05:27:36;94928.25;;;2.74;100.00
20077;BME280;12348;42.710;23.378;2023-04-07T05:30:05;94926.91;;;2.54;100.00
20077;BME280;12348;42.710;23.378;2023-04-07T05:32:32;94929.84;;;2.36;100.00
20077;BME280;12348;42.710;23.378;2023-04-07T05:34:59;94932.28;;;2.59;100.00
20077;BME280;12348;42.710;23.378;2023-04-07T05:37:26;94929.16;;;2.62;100.00
20077;BME280;12348;42.710;23.378;2023-04-07T05:39:52;94938.56;;;2.70;100.00
20077;BME280;12348;42.710;23.378;2023-04-07T05:42:19;94936.28;;;2.79;100.00
20077;BME280;12348;42.710;23.378;2023-04-07T05:44:46;94933.75;;;2.89;100.00
20077;BME280;12348;42.710;23.378;2023-04-07T05:47:14;94933.69;;;3.06;100.00
20077;BME280;12348;42.710;23.378;2023-04-07T05:49:41;94932.94;;;3.54;100.00
20077;BME280;12348;42.710;23.378;2023-04-07T05:52:10;94931.31;;;3.53;100.00
20077;BME280;12348;42.710;23.378;2023-04-07T05:54:37;94933.34;;;3.19;100.00
20077;BME280;12348;42.710;23.378;2023-04-07T05:57:05;94926.72;;;2.61;100.00
20077;BME280;12348;42.710;23.378;2023-04-07T05:59:31;94932.16;;;2.88;100.00
20077;BME280;12348;42.710;23.378;2023-04-07T06:01:58;94935.94;;;3.14;100.00
20077;BME280;12348;42.710;23.378;2023-04-07T06:04:26;94932.22;;;3.15;100.00
20077;BME280;12348;42.710;23.378;2023-04-07T06:06:53;94930.00;;;2.85;100.00
20077;BME280;12348;42.710;23.378;2023-04-07T06:09:20;94933.56;;;2.74;100.00
20077;BME280;12348;42.710;23.378;2023-04-07T06:11:47;94935.94;;;2.92;100.00
20077;BME280;12348;42.710;23.378;2023-04-07T06:14:13;94936.25;;;3.18;100.00
20077;BME280;12348;42.710;23.378;2023-04-07T06:16:40;94935.38;;;3.34;100.00
20077;BME280;12348;42.710;23.378;2023-04-07T06:19:07;94938.16;;;3.22;100.00
20077;BME280;12348;42.710;23.378;2023-04-07T06:21:35;94937.81;;;3.62;100.00
20077;BME280;12348;42.710;23.378;2023-04-07T06:24:02;94941.31;;;3.95;100.00
20077;BME280;12348;42.710;23.378;2023-04-07T06:26:29;94932.78;;;4.62;97.84
20077;BME280;12348;42.710;23.378;2023-04-07T06:28:56;94931.78;;;5.21;93.14
20077;BME280;12348;42.710;23.378;2023-04-07T06:31:23;94922.94;;;8.05;76.53
20077;BME280;12348;42.710;23.378;2023-04-07T06:33:51;94912.75;;;10.93;61.72
20077;BME280;12348;42.710;23.378;2023-04-07T06:36:18;94908.56;;;12.56;50.76
20077;BME280;12348;42.710;23.378;2023-04-07T06:38:46;94904.09;;;15.45;44.55
20077;BME280;12348;42.710;23.378;2023-04-07T06:41:13;94913.16;;;16.59;39.25
20077;BME280;12348;42.710;23.378;2023-04-07T06:43:41;94921.25;;;17.34;37.13
20077;BME280;12348;42.710;23.378;2023-04-07T06:46:08;94917.41;;;16.27;36.86
20077;BME280;12348;42.710;23.378;2023-04-07T06:48:35;94920.81;;;13.39;42.76
20077;BME280;12348;42.710;23.378;2023-04-07T06:51:02;94914.66;;;15.38;40.11
20077;BME280;12348;42.710;23.378;2023-04-07T06:53:29;94911.84;;;18.29;36.78
20077;BME280;12348;42.710;23.378;2023-04-07T06:56:04;94910.16;;;20.32;32.94
20077;BME280;12348;42.710;23.378;2023-04-07T07:00:58;94915.06;;;19.75;32.38
20077;BME280;12348;42.710;23.378;2023-04-07T07:03:25;94914.44;;;17.40;34.33
20077;BME280;12348;42.710;23.378;2023-04-07T07:05:53;94912.13;;;15.33;36.96
20077;BME280;12348;42.710;23.378;2023-04-07T07:08:20;94909.56;;;15.36;38.40
20077;BME280;12348;42.710;23.378;2023-04-07T07:10:47;94911.84;;;18.29;34.88
20077;BME280;12348;42.710;23.378;2023-04-07T07:13:16;94913.38;;;19.39;33.38
20077;BME280;12348;42.710;23.378;2023-04-07T07:15:43;94921.09;;;19.65;32.33
20077;BME280;12348;42.710;23.378;2023-04-07T07:18:10;94918.59;;;18.20;34.88
20077;BME280;12348;42.710;23.378;2023-04-07T07:20:37;94920.63;;;18.23;34.29
20077;BME280;12348;42.710;23.378;2023-04-07T07:23:04;94922.91;;;15.50;36.00
20077;BME280;12348;42.710;23.378;2023-04-07T07:25:30;94929.28;;;15.07;38.66
20077;BME280;12348;42.710;23.378;2023-04-07T07:27:57;94924.69;;;14.47;39.22
20077;BME280;12348;42.710;23.378;2023-04-07T07:30:25;94931.63;;;13.78;40.69
20077;BME280;12348;42.710;23.378;2023-04-07T07:32:53;94942.50;;;12.94;42.29
20077;BME280;12348;42.710;23.378;2023-04-07T07:35:21;94933.06;;;13.14;41.94
20077;BME280;12348;42.710;23.378;2023-04-07T07:37:49;94942.69;;;12.75;43.70
20077;BME280;12348;42.710;23.378;2023-04-07T07:40:16;94940.25;;;13.18;43.33
20077;BME280;12348;42.710;23.378;2023-04-07T07:42:44;94943.75;;;13.19;43.38
20077;BME280;12348;42.710;23.378;2023-04-07T07:45:11;94936.56;;;12.60;44.90
20077;BME280;12348;42.710;23.378;2023-04-07T07:47:39;94946.44;;;11.65;45.96
20077;BME280;12348;42.710;23.378;2023-04-07T07:50:06;94942.81;;;12.11;45.85
20077;BME280;12348;42.710;23.378;2023-04-07T07:52:33;94940.34;;;12.37;46.02
20077;BME280;12348;42.710;23.378;2023-04-07T07:55:00;94942.53;;;12.35;45.46
20077;BME280;12348;42.710;23.378;2023-04-07T07:57:27;94941.47;;;12.81;45.62
20077;BME280;12348;42.710;23.378;2023-04-07T07:59:55;94935.66;;;13.19;44.81
20077;BME280;12348;42.710;23.378;2023-04-07T08:02:22;94937.84;;;12.41;45.11
20077;BME280;12348;42.710;23.378;2023-04-07T08:04:55;94931.84;;;12.66;44.00
20077;BME280;12348;42.710;23.378;2023-04-07T08:07:22;94939.13;;;12.43;43.72
20077;BME280;12348;42.710;23.378;2023-04-07T08:09:48;94943.69;;;12.20;44.74
20077;BME280;12348;42.710;23.378;2023-04-07T08:12:15;94929.47;;;11.09;47.32
20077;BME280;12348;42.710;23.378;2023-04-07T08:14:42;94932.09;;;10.82;44.61
20077;BME280;12348;42.710;23.378;2023-04-07T08:17:09;94939.72;;;10.61;42.47
20077;BME280;12348;42.710;23.378;2023-04-07T08:19:37;94938.63;;;10.62;41.90
20077;BME280;12348;42.710;23.378;2023-04-07T08:22:05;94933.88;;;10.73;42.21
20077;BME280;12348;42.710;23.378;2023-04-07T08:24:32;94934.72;;;10.87;41.64
20077;BME280;12348;42.710;23.378;2023-04-07T08:26:58;94937.19;;;10.97;43.04
20077;BME280;12348;42.710;23.378;2023-04-07T08:29:25;94941.06;;;10.77;42.26
20077;BME280;12348;42.710;23.378;2023-04-07T08:31:52;94932.44;;;10.61;41.52
20077;BME280;12348;42.710;23.378;2023-04-07T08:34:19;94937.44;;;11.14;40.85
20077;BME280;12348;42.710;23.378;2023-04-07T08:36:46;94942.94;;;11.09;41.25
20077;BME280;12348;42.710;23.378;2023-04-07T08:39:14;94934.66;;;10.73;41.38
20077;BME280;12348;42.710;23.378;2023-04-07T08:41:41;94936.84;;;10.71;41.59
20077;BME280;12348;42.710;23.378;2023-04-07T08:44:09;94933.81;;;10.59;41.52
20077;BME280;12348;42.710;23.378;2023-04-07T08:46:37;94940.31;;;10.90;41.47
20077;BME280;12348;42.710;23.378;2023-04-07T08:49:08;94937.84;;;11.22;41.50
20077;BME280;12348;42.710;23.378;2023-04-07T08:51:37;94934.97;;;11.46;40.43
20077;BME280;12348;42.710;23.378;2023-04-07T08:54:07;94943.94;;;11.41;41.07
20077;BME280;12348;42.710;23.378;2023-04-07T08:56:38;94932.44;;;11.91;39.81
20077;BME280;12348;42.710;23.378;2023-04-07T08:59:06;94933.06;;;13.14;37.52
20077;BME280;12348;42.710;23.378;2023-04-07T09:01:34;94929.47;;;13.58;36.85
20077;BME280;12348;42.710;23.378;2023-04-07T09:04:02;94940.88;;;13.15;37.35
20077;BME280;12348;42.710;23.378;2023-04-07T09:06:30;94940.16;;;13.01;37.81
20077;BME280;12348;42.710;23.378;2023-04-07T09:08:56;94936.13;;;12.45;37.79
20077;BME280;12348;42.710;23.378;2023-04-07T09:11:25;94938.34;;;11.93;38.87
20077;BME280;12348;42.710;23.378;2023-04-07T09:13:54;94945.84;;;11.96;38.84
20077;BME280;12348;42.710;23.378;2023-04-07T09:16:21;94939.34;;;11.41;39.79
20077;BME280;12348;42.710;23.378;2023-04-07T09:18:48;94937.34;;;11.33;40.67
20077;BME280;12348;42.710;23.378;2023-04-07T09:21:15;94946.06;;;10.98;41.65
20077;BME280;12348;42.710;23.378;2023-04-07T09:23:42;94940.94;;;12.70;39.13
20077;BME280;12348;42.710;23.378;2023-04-07T09:26:20;94938.56;;;14.80;36.87
20077;BME280;12348;42.710;23.378;2023-04-07T09:28:48;94939.28;;;15.24;35.42
20077;BME280;12348;42.710;23.378;2023-04-07T09:31:17;94937.28;;;14.43;37.19
20077;BME280;12348;42.710;23.378;2023-04-07T09:33:45;94930.66;;;15.22;35.11
20077;BME280;12348;42.710;23.378;2023-04-07T09:36:12;94933.84;;;15.80;34.44
20077;BME280;12348;42.710;23.378;2023-04-07T09:38:40;94924.28;;;15.65;34.17
20077;BME280;12348;42.710;23.378;2023-04-07T09:41:08;94935.97;;;13.48;37.47
20077;BME280;12348;42.710;23.378;2023-04-07T09:43:37;94936.78;;;12.50;39.45
20077;BME280;12348;42.710;23.378;2023-04-07T09:46:09;94941.94;;;13.37;38.31
20077;BME280;12348;42.710;23.378;2023-04-07T09:48:37;94937.31;;;13.06;39.63
20077;BME280;12348;42.710;23.378;2023-04-07T09:51:06;94944.41;;;12.12;39.07
20077;BME280;12348;42.710;23.378;2023-04-07T09:53:46;94942.34;;;11.54;41.34
20077;BME280;12348;42.710;23.378;2023-04-07T09:56:14;94949.34;;;10.81;42.71
20077;BME280;12348;42.710;23.378;2023-04-07T09:58:44;94957.72;;;10.79;42.95
20077;BME280;12348;42.710;23.378;2023-04-07T10:01:11;94949.88;;;10.64;43.95
20077;BME280;12348;42.710;23.378;2023-04-07T10:03:40;94952.38;;;10.93;43.76
20077;BME280;12348;42.710;23.378;2023-04-07T10:06:07;94930.16;;;11.56;42.06
20077;BME280;12348;42.710;23.378;2023-04-07T10:08:36;94950.53;;;11.90;40.90
20077;BME280;12348;42.710;23.378;2023-04-07T10:11:04;94938.88;;;12.17;40.98
20077;BME280;12348;42.710;23.378;2023-04-07T10:13:33;94949.47;;;13.17;40.28
20077;BME280;12348;42.710;23.378;2023-04-07T10:16:03;94951.97;;;12.82;41.10
20077;BME280;12348;42.710;23.378;2023-04-07T10:18:30;94948.66;;;12.41;42.32
20077;BME280;12348;42.710;23.378;2023-04-07T10:21:02;94958.97;;;12.25;42.86
20077;BME280;12348;42.710;23.378;2023-04-07T10:23:36;94956.25;;;12.38;42.24
20077;BME280;12348;42.710;23.378;2023-04-07T10:26:06;94948.63;;;11.91;42.50
20077;BME280;12348;42.710;23.378;2023-04-07T10:28:37;94954.59;;;12.15;43.35
20077;BME280;12348;42.710;23.378;2023-04-07T10:31:07;94945.75;;;11.32;45.80
20077;BME280;12348;42.710;23.378;2023-04-07T10:33:44;94950.41;;;11.12;46.40
20077;BME280;12348;42.710;23.378;2023-04-07T10:36:13;94946.13;;;11.25;45.64
20077;BME280;12348;42.710;23.378;2023-04-07T10:38:40;94946.66;;;10.81;46.60
20077;BME280;12348;42.710;23.378;2023-04-07T10:41:31;94952.66;;;10.91;45.77
20077;BME280;12348;42.710;23.378;2023-04-07T10:43:59;94953.13;;;11.26;46.12
20077;BME280;12348;42.710;23.378;2023-04-07T10:49:27;94961.69;;;11.14;45.12
20077;BME280;12348;42.710;23.378;2023-04-07T10:52:23;94957.13;;;11.29;46.97
20077;BME280;12348;42.710;23.378;2023-04-07T10:58:17;94955.81;;;11.26;47.00
20077;BME280;12348;42.710;23.378;2023-04-07T11:01:16;94956.44;;;11.37;46.90
20077;BME280;12348;42.710;23.378;2023-04-07T11:04:02;94963.91;;;11.54;45.21
20077;BME280;12348;42.710;23.378;2023-04-07T11:06:30;94954.16;;;10.98;46.18
20077;BME280;12348;42.710;23.378;2023-04-07T11:08:59;94965.34;;;11.05;46.40
20077;BME280;12348;42.710;23.378;2023-04-07T11:11:40;94971.38;;;10.83;46.21
20077;BME280;12348;42.710;23.378;2023-04-07T11:14:07;94963.44;;;10.91;46.55
20077;BME280;12348;42.710;23.378;2023-04-07T11:16:41;94969.25;;;11.12;46.29
20077;BME280;12348;42.710;23.378;2023-04-07T11:19:08;94964.31;;;11.33;44.71
20077;BME280;12348;42.710;23.378;2023-04-07T11:21:35;94965.41;;;11.46;45.33
20077;BME280;12348;42.710;23.378;2023-04-07T11:24:04;94965.03;;;11.39;44.80
20077;BME280;12348;42.710;23.378;2023-04-07T11:26:37;94961.88;;;11.04;44.56
20077;BME280;12348;42.710;23.378;2023-04-07T11:29:04;94971.59;;;11.33;45.22
20077;BME280;12348;42.710;23.378;2023-04-07T11:31:31;94972.09;;;11.49;45.07
20077;BME280;12348;42.710;23.378;2023-04-07T11:33:59;94970.59;;;11.43;45.15
20077;BME280;12348;42.710;23.378;2023-04-07T11:36:28;94977.19;;;10.90;46.99
20077;BME280;12348;42.710;23.378;2023-04-07T11:38:57;94976.69;;;11.34;45.93
20077;BME280;12348;42.710;23.378;2023-04-07T11:41:27;94971.31;;;11.48;46.11
20077;BME280;12348;42.710;23.378;2023-04-07T11:44:08;94979.53;;;11.84;45.51
20077;BME280;12348;42.710;23.378;2023-04-07T11:46:35;94978.75;;;11.84;44.39
20077;BME280;12348;42.710;23.378;2023-04-07T11:49:13;94971.50;;;11.79;45.66
20077;BME280;12348;42.710;23.378;2023-04-07T11:51:42;94978.84;;;11.93;45.10
20077;BME280;12348;42.710;23.378;2023-04-07T11:54:09;94974.94;;;11.99;44.77
20077;BME280;12348;42.710;23.378;2023-04-07T11:56:45;94973.00;;;11.72;44.97
20077;BME280;12348;42.710;23.378;2023-04-07T11:59:22;94974.84;;;10.70;46.81
20077;BME280;12348;42.710;23.378;2023-04-07T12:01:49;94976.41;;;10.89;47.84
20077;BME280;12348;42.710;23.378;2023-04-07T12:04:17;94970.59;;;11.43;46.58
20077;BME280;12348;42.710;23.378;2023-04-07T12:06:45;94967.31;;;12.01;45.84
20077;BME280;12348;42.710;23.378;2023-04-07T12:09:26;94963.50;;;12.16;44.87
20077;BME280;12348;42.710;23.378;2023-04-07T12:11:55;94972.25;;;11.99;44.04
20077;BME280;12348;42.710;23.378;2023-04-07T12:14:23;94966.78;;;12.26;44.44
20077;BME280;12348;42.710;23.378;2023-04-07T12:16:50;94969.00;;;11.83;44.54
20077;BME280;12348;42.710;23.378;2023-04-07T12:19:20;94968.81;;;12.07;46.14
20077;BME280;12348;42.710;23.378;2023-04-07T12:21:47;94968.56;;;12.67;44.56
20077;BME280;12348;42.710;23.378;2023-04-07T12:24:14;94963.81;;;12.73;44.52
20077;BME280;12348;42.710;23.378;2023-04-07T12:26:41;94962.63;;;12.65;44.03
20077;BME280;12348;42.710;23.378;2023-04-07T12:29:09;94978.69;;;12.25;44.21
20077;BME280;12348;42.710;23.378;2023-04-07T12:31:36;94969.44;;;12.04;45.07
20077;BME280;12348;42.710;23.378;2023-04-07T12:34:03;94970.91;;;11.82;45.55
20077;BME280;12348;42.710;23.378;2023-04-07T12:36:30;94975.31;;;12.06;45.47
20077;BME280;12348;42.710;23.378;2023-04-07T12:38:58;94974.28;;;12.16;45.32
20077;BME280;12348;42.710;23.378;2023-04-07T12:41:25;94957.66;;;11.86;45.74
20077;BME280;12348;42.710;23.378;2023-04-07T12:43:52;94962.50;;;11.43;45.54
20077;BME280;12348;42.710;23.378;2023-04-07T12:46:20;94972.13;;;11.62;45.31
20077;BME280;12348;42.710;23.378;2023-04-07T12:48:47;94967.22;;;11.51;45.58
20077;BME280;12348;42.710;23.378;2023-04-07T12:51:13;94957.19;;;11.24;46.26
20077;BME280;12348;42.710;23.378;2023-04-07T12:53:40;94963.41;;;11.24;46.54
20077;BME280;12348;42.710;23.378;2023-04-07T12:56:07;94966.19;;;10.86;47.08
20077;BME280;12348;42.710;23.378;2023-04-07T12:58:34;94969.31;;;10.93;47.39
20077;BME280;12348;42.710;23.378;2023-04-07T13:01:00;94972.69;;;11.18;45.77
20077;BME280;12348;42.710;23.378;2023-04-07T13:03:28;94974.09;;;11.29;46.80
20077;BME280;12348;42.710;23.378;2023-04-07T13:05:55;94975.00;;;11.52;46.75